Time;durP1;ratioP1;P1;durP2;ratioP2;P2;SDS_P1;SDS_P2;PMS_P1;PMS_P2;Temp;Humidity;BMP_temperature;BMP_pressure;BME280_temperature;BME280_humidity;BME280_pressure;Samples;Min_cycle;Max_cycle;Signal;HPM_P1;HPM_P2
2021/11/28 00:02:08;;;;;;;9.75;5.22;;;;;;;;;;5066370;28;20032;-57
2021/11/28 00:04:35;;;;;;;8.40;4.40;;;;;;;;;;5065926;28;20100;-57
2021/11/28 00:07:08;;;;;;;8.90;4.82;;;;;;;;;;5064346;28;20033;-56
2021/11/28 00:09:43;;;;;;;7.95;4.53;;;;;;;;;;5048071;28;20065;-57
2021/11/28 00:14:36;;;;;;;9.43;4.57;;;;;;;;;;5046010;28;20120;-57
2021/11/28 00:17:02;;;;;;;6.30;3.20;;;;;;;;;;5048140;28;20484;-57
2021/11/28 00:19:28;;;;;;;4.22;2.78;;;;;;;;;;5066143;28;20028;-56
2021/11/28 00:21:55;;;;;;;4.45;2.58;;;;;;;;;;5065560;28;20284;-55
2021/11/28 00:24:21;;;;;;;4.03;2.22;;;;;;;;;;5064025;28;20248;-56
2021/11/28 00:26:49;;;;;;;3.33;2.25;;;;;;;;;;5065733;28;20035;-55
2021/11/28 00:29:15;;;;;;;4.40;2.03;;;;;;;;;;5059608;28;20033;-56
2021/11/28 00:31:42;;;;;;;4.32;1.85;;;;;;;;;;5045456;28;20053;-57
2021/11/28 00:34:08;;;;;;;3.33;2.10;;;;;;;;;;5045506;28;20031;-55
2021/11/28 00:36:34;;;;;;;4.43;2.00;;;;;;;;;;5055924;28;20031;-56
2021/11/28 00:39:00;;;;;;;4.63;2.28;;;;;;;;;;5074085;28;20028;-56
2021/11/28 00:41:27;;;;;;;4.55;2.20;;;;;;;;;;5065920;28;20107;-55
2021/11/28 00:43:53;;;;;;;3.65;2.33;;;;;;;;;;5067244;28;20059;-55
2021/11/28 00:46:19;;;;;;;4.85;2.60;;;;;;;;;;5045925;28;20419;-56
2021/11/28 00:48:46;;;;;;;7.45;2.58;;;;;;;;;;5059737;28;20033;-56
2021/11/28 00:53:45;;;;;;;4.68;2.35;;;;;;;;;;5062760;28;20519;-55
2021/11/28 00:56:11;;;;;;;4.15;2.13;;;;;;;;;;5064120;28;20474;-56
2021/11/28 00:58:37;;;;;;;4.30;2.03;;;;;;;;;;5060430;28;20110;-54
2021/11/28 01:01:03;;;;;;;2.97;1.77;;;;;;;;;;5043349;28;20472;-56
2021/11/28 01:03:30;;;;;;;3.08;1.80;;;;;;;;;;5049972;28;20048;-56
2021/11/28 01:05:56;;;;;;;4.07;2.00;;;;;;;;;;5063334;28;20827;-55
2021/11/28 01:08:22;;;;;;;3.20;1.60;;;;;;;;;;5063568;28;20025;-56
2021/11/28 01:10:50;;;;;;;2.50;1.48;;;;;;;;;;5062373;28;20056;-56
2021/11/28 01:13:18;;;;;;;2.40;1.65;;;;;;;;;;5052343;28;20070;-54
2021/11/28 01:15:44;;;;;;;2.53;1.50;;;;;;;;;;5042859;28;20113;-56
2021/11/28 01:18:10;;;;;;;2.30;1.60;;;;;;;;;;5043608;28;20103;-56
2021/11/28 01:20:36;;;;;;;3.00;1.70;;;;;;;;;;5041788;28;20407;-55
2021/11/28 01:23:03;;;;;;;2.80;1.70;;;;;;;;;;5050135;28;20060;-56
2021/11/28 01:25:29;;;;;;;2.38;1.77;;;;;;;;;;5044830;28;20036;-56
2021/11/28 01:27:55;;;;;;;2.40;1.60;;;;;;;;;;5063254;28;20075;-56
2021/11/28 01:30:21;;;;;;;2.10;1.30;;;;;;;;;;5062256;28;20028;-55
2021/11/28 01:32:47;;;;;;;2.30;1.48;;;;;;;;;;5026200;28;20504;-55
2021/11/28 01:35:14;;;;;;;1.77;1.30;;;;;;;;;;5046019;28;20021;-57
2021/11/28 01:37:41;;;;;;;2.47;1.58;;;;;;;;;;5046039;28;20112;-57
2021/11/28 01:40:12;;;;;;;2.58;1.23;;;;;;;;;;5061538;28;20038;-57
2021/11/28 01:42:39;;;;;;;2.80;1.65;;;;;;;;;;5064038;28;20075;-57
2021/11/28 01:45:07;;;;;;;2.40;1.40;;;;;;;;;;5063047;28;20040;-57
2021/11/28 01:47:34;;;;;;;1.33;0.95;;;;;;;;;;5061921;28;20020;-57
2021/11/28 01:50:00;;;;;;;2.47;1.30;;;;;;;;;;5065330;28;20032;-57
2021/11/28 01:52:26;;;;;;;1.95;1.00;;;;;;;;;;5067489;28;20497;-57
2021/11/28 01:54:52;;;;;;;1.23;0.82;;;;;;;;;;5067377;28;20518;-56
2021/11/28 01:57:18;;;;;;;1.30;0.95;;;;;;;;;;5059356;28;20032;-57
2021/11/28 01:59:44;;;;;;;1.33;1.13;;;;;;;;;;5048479;28;20035;-57
2021/11/28 02:02:10;;;;;;;1.85;1.10;;;;;;;;;;5049033;28;20029;-57
2021/11/28 02:04:37;;;;;;;1.83;1.17;;;;;;;;;;5049093;28;20036;-57
2021/11/28 02:07:03;;;;;;;1.60;1.05;;;;;;;;;;5048190;28;20504;-57
2021/11/28 02:09:29;;;;;;;1.95;1.33;;;;;;;;;;5048964;28;20029;-57
2021/11/28 02:11:55;;;;;;;3.42;2.03;;;;;;;;;;5048695;28;20509;-57
2021/11/28 02:14:21;;;;;;;3.88;2.17;;;;;;;;;;5048919;28;20526;-57
2021/11/28 02:16:47;;;;;;;3.97;1.80;;;;;;;;;;5049711;28;20439;-57
2021/11/28 02:19:14;;;;;;;3.55;1.73;;;;;;;;;;5068621;28;20034;-57
2021/11/28 02:21:40;;;;;;;3.05;1.65;;;;;;;;;;5066969;28;20114;-56
2021/11/28 02:24:06;;;;;;;3.72;1.50;;;;;;;;;;5068613;28;20032;-56
2021/11/28 02:26:32;;;;;;;2.22;1.30;;;;;;;;;;5068391;28;20043;-57
2021/11/28 02:28:58;;;;;;;1.75;1.33;;;;;;;;;;5065232;28;20060;-57
2021/11/28 02:31:25;;;;;;;1.27;1.10;;;;;;;;;;5068516;28;20020;-57
2021/11/28 02:33:51;;;;;;;1.30;0.82;;;;;;;;;;5068622;28;20093;-57
2021/11/28 02:36:17;;;;;;;1.83;1.17;;;;;;;;;;5068879;28;20031;-72
2021/11/28 02:38:44;;;;;;;1.50;0.98;;;;;;;;;;5067237;28;20040;-73
2021/11/28 02:41:10;;;;;;;1.48;1.17;;;;;;;;;;5068656;28;20024;-73
2021/11/28 02:43:36;;;;;;;1.83;1.00;;;;;;;;;;5068222;28;20545;-72
2021/11/28 02:46:04;;;;;;;2.22;1.08;;;;;;;;;;5066893;28;20590;-72
2021/11/28 02:48:30;;;;;;;2.80;1.10;;;;;;;;;;5057086;28;20423;-72
2021/11/28 02:50:58;;;;;;;1.38;1.00;;;;;;;;;;5057252;28;20024;-72
2021/11/28 02:53:24;;;;;;;1.52;0.90;;;;;;;;;;5085123;28;21048;-71
2021/11/28 02:55:53;;;;;;;2.80;1.60;;;;;;;;;;5088550;28;20024;-71
2021/11/28 02:58:21;;;;;;;4.63;2.15;;;;;;;;;;5076496;28;20042;-72
2021/11/28 03:00:49;;;;;;;3.40;2.10;;;;;;;;;;5086916;28;20100;-72
2021/11/28 03:03:15;;;;;;;3.53;2.10;;;;;;;;;;5087782;28;20060;-71
2021/11/28 03:05:42;;;;;;;2.90;1.90;;;;;;;;;;5087302;28;20024;-72
2021/11/28 03:08:08;;;;;;;4.15;2.05;;;;;;;;;;5086770;28;20150;-72
2021/11/28 03:11:00;;;;;;;3.22;1.77;;;;;;;;;;5087308;28;20078;-74
2021/11/28 03:13:37;;;;;;;3.80;1.98;;;;;;;;;;5082161;28;20060;-73
2021/11/28 03:16:06;;;;;;;2.78;1.52;;;;;;;;;;5088185;28;20424;-73
2021/11/28 03:18:34;;;;;;;1.95;1.20;;;;;;;;;;5087372;28;20521;-72
2021/11/28 03:21:02;;;;;;;1.55;1.10;;;;;;;;;;5088072;28;20107;-72
2021/11/28 03:23:30;;;;;;;2.28;1.13;;;;;;;;;;5088130;28;20051;-73
2021/11/28 03:26:08;;;;;;;1.67;1.23;;;;;;;;;;5087463;28;20024;-73
2021/11/28 03:28:35;;;;;;;1.48;1.00;;;;;;;;;;5085648;28;20035;-73
2021/11/28 03:31:01;;;;;;;1.70;1.08;;;;;;;;;;5069753;28;20398;-73
2021/11/28 03:33:27;;;;;;;1.90;1.10;;;;;;;;;;5087559;28;20710;-73
2021/11/28 03:35:53;;;;;;;1.98;1.30;;;;;;;;;;5068261;28;20952;-73
2021/11/28 03:38:19;;;;;;;1.27;1.00;;;;;;;;;;5085865;28;20036;-73
2021/11/28 03:40:46;;;;;;;1.35;0.88;;;;;;;;;;5086637;28;20083;-73
2021/11/28 03:43:12;;;;;;;1.83;0.90;;;;;;;;;;5086353;28;20488;-73
2021/11/28 03:45:38;;;;;;;0.80;0.80;;;;;;;;;;5085613;28;20070;-73
2021/11/28 03:48:04;;;;;;;1.67;1.10;;;;;;;;;;5086927;28;20402;-73
2021/11/28 03:50:30;;;;;;;2.38;1.17;;;;;;;;;;5087788;28;20049;-73
2021/11/28 03:52:56;;;;;;;2.00;1.30;;;;;;;;;;5086809;28;20031;-72
2021/11/28 03:55:24;;;;;;;1.20;1.00;;;;;;;;;;5086134;28;20024;-72
2021/11/28 03:57:50;;;;;;;2.28;1.13;;;;;;;;;;5069640;28;20365;-71
2021/11/28 04:00:16;;;;;;;2.03;1.20;;;;;;;;;;5066915;28;20032;-71
2021/11/28 04:02:42;;;;;;;3.65;1.13;;;;;;;;;;5066105;28;20048;-72
2021/11/28 04:05:09;;;;;;;1.65;1.25;;;;;;;;;;5066623;28;20021;-71
2021/11/28 04:07:36;;;;;;;2.20;1.50;;;;;;;;;;5084662;28;20036;-71
2021/11/28 04:10:04;;;;;;;2.20;1.60;;;;;;;;;;5087348;28;20020;-71
2021/11/28 04:12:30;;;;;;;2.15;1.58;;;;;;;;;;5086463;28;20444;-72
2021/11/28 04:14:59;;;;;;;1.92;1.33;;;;;;;;;;5086591;28;20020;-72
2021/11/28 04:17:25;;;;;;;2.35;1.48;;;;;;;;;;5085076;28;20418;-72
2021/11/28 04:19:53;;;;;;;1.85;1.35;;;;;;;;;;5086259;28;20024;-71
2021/11/28 04:22:20;;;;;;;2.03;1.50;;;;;;;;;;5086598;28;20028;-71
2021/11/28 04:24:47;;;;;;;2.20;1.20;;;;;;;;;;5085085;28;20032;-71
2021/11/28 04:27:13;;;;;;;2.85;1.17;;;;;;;;;;5070762;28;20032;-71
2021/11/28 04:29:39;;;;;;;1.95;1.50;;;;;;;;;;5066115;28;20024;-71
2021/11/28 04:32:06;;;;;;;2.38;1.30;;;;;;;;;;5066211;28;20518;-71
2021/11/28 04:34:32;;;;;;;2.15;1.30;;;;;;;;;;5066511;28;20017;-71
2021/11/28 04:36:58;;;;;;;2.50;1.40;;;;;;;;;;5047387;28;20890;-71
2021/11/28 04:39:24;;;;;;;2.15;1.30;;;;;;;;;;5066029;28;20033;-71
2021/11/28 04:41:50;;;;;;;2.33;1.30;;;;;;;;;;5065815;28;20533;-72
2021/11/28 04:44:17;;;;;;;2.22;1.50;;;;;;;;;;5079619;28;20028;-71
2021/11/28 04:46:43;;;;;;;2.85;1.63;;;;;;;;;;5084566;28;20028;-70
2021/11/28 04:49:09;;;;;;;2.33;1.50;;;;;;;;;;5082095;28;20044;-69
2021/11/28 04:51:35;;;;;;;3.00;1.52;;;;;;;;;;5066683;28;20099;-70
2021/11/28 04:54:01;;;;;;;2.17;1.40;;;;;;;;;;5065382;28;20025;-69
2021/11/28 04:56:28;;;;;;;1.73;1.05;;;;;;;;;;5072933;28;20024;-69
2021/11/28 04:58:55;;;;;;;1.50;1.00;;;;;;;;;;5086281;28;20016;-69
2021/11/28 05:01:24;;;;;;;1.80;1.08;;;;;;;;;;5086051;28;20074;-68
2021/11/28 05:03:50;;;;;;;1.52;1.10;;;;;;;;;;5085419;28;20051;-68
2021/11/28 05:06:17;;;;;;;1.65;1.10;;;;;;;;;;5084637;28;20032;-68
2021/11/28 05:08:43;;;;;;;2.50;1.25;;;;;;;;;;5086462;28;20114;-67
2021/11/28 05:11:09;;;;;;;1.20;0.93;;;;;;;;;;5072977;28;20123;-67
2021/11/28 05:13:36;;;;;;;1.13;0.82;;;;;;;;;;5081510;28;20052;-68
2021/11/28 05:16:02;;;;;;;1.85;0.90;;;;;;;;;;5085836;28;20024;-69
2021/11/28 05:18:28;;;;;;;1.25;0.90;;;;;;;;;;5065527;28;20094;-68
2021/11/28 05:20:54;;;;;;;1.20;1.02;;;;;;;;;;5065653;28;20029;-69
2021/11/28 05:23:20;;;;;;;2.15;1.02;;;;;;;;;;5066250;28;20035;-69
2021/11/28 05:25:46;;;;;;;2.15;1.27;;;;;;;;;;5069575;28;20479;-69
2021/11/28 05:28:12;;;;;;;1.35;1.08;;;;;;;;;;5069744;28;20487;-69
2021/11/28 05:30:39;;;;;;;1.83;1.20;;;;;;;;;;5069501;28;20115;-68
2021/11/28 05:33:06;;;;;;;1.52;1.20;;;;;;;;;;5069542;28;20016;-68
2021/11/28 05:35:32;;;;;;;1.10;0.90;;;;;;;;;;5069805;28;20024;-67
2021/11/28 05:37:58;;;;;;;0.73;0.73;;;;;;;;;;5084542;28;20032;-67
2021/11/28 05:40:25;;;;;;;1.92;1.60;;;;;;;;;;5089857;28;20059;-68
2021/11/28 05:42:52;;;;;;;1.58;0.93;;;;;;;;;;5088336;28;20039;-69
2021/11/28 05:45:20;;;;;;;0.82;0.82;;;;;;;;;;5089639;28;20097;-68
2021/11/28 05:47:47;;;;;;;1.08;0.98;;;;;;;;;;5089026;28;20031;-68
2021/11/28 05:50:14;;;;;;;0.80;0.80;;;;;;;;;;5090364;28;20040;-68
2021/11/28 05:52:40;;;;;;;0.85;0.85;;;;;;;;;;5088468;28;20016;-68
2021/11/28 05:55:07;;;;;;;1.00;0.90;;;;;;;;;;5089392;28;20130;-67
2021/11/28 05:57:33;;;;;;;0.95;0.85;;;;;;;;;;5088486;28;20095;-67
2021/11/28 05:59:59;;;;;;;1.67;1.33;;;;;;;;;;5089370;28;20426;-66
2021/11/28 06:02:25;;;;;;;0.90;0.90;;;;;;;;;;5089602;28;20532;-66
2021/11/28 06:04:51;;;;;;;1.10;1.00;;;;;;;;;;5088817;28;20038;-65
2021/11/28 06:07:18;;;;;;;1.83;1.30;;;;;;;;;;5088877;28;20863;-65
2021/11/28 06:09:44;;;;;;;1.38;1.08;;;;;;;;;;5089771;28;20466;-65
2021/11/28 06:12:10;;;;;;;1.90;1.38;;;;;;;;;;5088281;28;20457;-64
2021/11/28 06:14:36;;;;;;;2.00;1.30;;;;;;;;;;5087448;28;20016;-64
2021/11/28 06:17:03;;;;;;;1.98;1.33;;;;;;;;;;5088078;28;20057;-65
2021/11/28 06:19:29;;;;;;;1.75;0.90;;;;;;;;;;5088442;28;20034;-65
2021/11/28 06:21:55;;;;;;;1.63;1.42;;;;;;;;;;5088925;28;20410;-64
2021/11/28 06:24:21;;;;;;;1.52;1.30;;;;;;;;;;5089095;28;20071;-64
2021/11/28 06:26:48;;;;;;;1.67;1.55;;;;;;;;;;5087864;28;20027;-64
2021/11/28 06:29:15;;;;;;;2.30;1.65;;;;;;;;;;5072282;28;20028;-63
2021/11/28 06:31:41;;;;;;;1.95;1.75;;;;;;;;;;5068483;28;20070;-64
2021/11/28 06:34:08;;;;;;;2.10;1.80;;;;;;;;;;5068371;28;20386;-64
2021/11/28 06:36:34;;;;;;;2.33;1.40;;;;;;;;;;5069448;28;20060;-64
2021/11/28 06:39:00;;;;;;;1.77;1.35;;;;;;;;;;5079115;28;20074;-65
2021/11/28 06:41:26;;;;;;;1.83;1.40;;;;;;;;;;5088581;28;20020;-64
2021/11/28 06:43:53;;;;;;;1.40;1.30;;;;;;;;;;5088098;28;20049;-64
2021/11/28 06:46:19;;;;;;;1.30;1.20;;;;;;;;;;5087455;28;20016;-63
2021/11/28 06:48:45;;;;;;;1.42;1.23;;;;;;;;;;5085423;28;20396;-63
2021/11/28 06:51:11;;;;;;;1.60;1.40;;;;;;;;;;5083587;28;20018;-64
2021/11/28 06:53:37;;;;;;;1.45;1.10;;;;;;;;;;5070202;28;20120;-64
2021/11/28 06:56:04;;;;;;;1.98;1.13;;;;;;;;;;5068811;28;20123;-64
2021/11/28 06:58:34;;;;;;;1.38;1.27;;;;;;;;;;5076459;28;20491;-64
2021/11/28 07:01:00;;;;;;;1.77;1.30;;;;;;;;;;5078693;28;20035;-64
2021/11/28 07:03:26;;;;;;;1.30;1.20;;;;;;;;;;5088452;28;20106;-64
2021/11/28 07:05:53;;;;;;;2.00;1.70;;;;;;;;;;5088189;28;20051;-64
2021/11/28 07:08:19;;;;;;;1.88;1.52;;;;;;;;;;5088591;28;20779;-64
2021/11/28 07:10:45;;;;;;;1.83;1.38;;;;;;;;;;5079981;28;20020;-64
2021/11/28 07:13:12;;;;;;;1.67;1.30;;;;;;;;;;5049781;28;20020;-64
2021/11/28 07:15:38;;;;;;;1.92;1.70;;;;;;;;;;5067652;28;20085;-63
2021/11/28 07:18:04;;;;;;;2.47;1.80;;;;;;;;;;5067614;28;20036;-63
2021/11/28 07:20:31;;;;;;;2.22;1.80;;;;;;;;;;5087090;28;20032;-62
2021/11/28 07:22:58;;;;;;;2.78;2.00;;;;;;;;;;5088060;28;20070;-62
2021/11/28 07:25:24;;;;;;;2.75;1.67;;;;;;;;;;5087820;28;20038;-61
2021/11/28 07:27:51;;;;;;;3.00;2.05;;;;;;;;;;5069287;28;20024;-61
2021/11/28 07:30:18;;;;;;;3.33;2.10;;;;;;;;;;5087127;28;20024;-61
2021/11/28 07:32:44;;;;;;;2.70;2.10;;;;;;;;;;5088478;28;20016;-61
2021/11/28 07:35:10;;;;;;;2.33;1.55;;;;;;;;;;5087904;28;20056;-60
2021/11/28 07:37:36;;;;;;;1.63;1.40;;;;;;;;;;5085898;28;20032;-60
2021/11/28 07:40:03;;;;;;;1.60;1.17;;;;;;;;;;5087378;28;20510;-60
2021/11/28 07:42:30;;;;;;;1.45;1.10;;;;;;;;;;5086621;28;20028;-60
2021/11/28 07:44:56;;;;;;;1.70;1.13;;;;;;;;;;5086941;28;20032;-59
2021/11/28 07:47:22;;;;;;;1.30;1.20;;;;;;;;;;5086739;28;20074;-59
2021/11/28 07:49:49;;;;;;;1.33;1.02;;;;;;;;;;5087352;28;20446;-59
2021/11/28 07:52:15;;;;;;;1.52;1.02;;;;;;;;;;5084237;28;20062;-59
2021/11/28 07:54:41;;;;;;;1.08;0.95;;;;;;;;;;5085964;28;20479;-59
2021/11/28 07:57:07;;;;;;;1.05;0.85;;;;;;;;;;5085318;28;20694;-59
2021/11/28 07:59:34;;;;;;;0.98;0.90;;;;;;;;;;5085165;28;20024;-58
2021/11/28 08:02:00;;;;;;;1.05;0.90;;;;;;;;;;5088281;28;20024;-59
2021/11/28 08:04:27;;;;;;;0.93;0.90;;;;;;;;;;5086871;28;20024;-59
2021/11/28 08:06:53;;;;;;;1.17;0.95;;;;;;;;;;5087052;28;20035;-59
2021/11/28 08:09:19;;;;;;;1.23;1.00;;;;;;;;;;5077056;28;20021;-59
2021/11/28 08:11:45;;;;;;;0.98;0.98;;;;;;;;;;5067343;28;20040;-58
2021/11/28 08:14:12;;;;;;;1.10;1.00;;;;;;;;;;5066388;28;20024;-58
2021/11/28 08:16:38;;;;;;;0.80;0.80;;;;;;;;;;5074995;28;20160;-58
2021/11/28 08:19:05;;;;;;;1.27;1.17;;;;;;;;;;5066819;28;20029;-58
2021/11/28 08:21:33;;;;;;;1.10;1.00;;;;;;;;;;5064756;28;20296;-58
2021/11/28 08:24:04;;;;;;;1.10;1.00;;;;;;;;;;5083588;28;20406;-58
2021/11/28 08:26:31;;;;;;;1.00;1.00;;;;;;;;;;5098460;28;20028;-58
2021/11/28 08:28:58;;;;;;;1.52;1.23;;;;;;;;;;5096161;28;20024;-59
2021/11/28 08:31:24;;;;;;;1.25;0.90;;;;;;;;;;5106917;28;20027;-58
2021/11/28 08:33:50;;;;;;;2.03;1.80;;;;;;;;;;5078433;28;20025;-58
2021/11/28 08:36:19;;;;;;;2.25;1.73;;;;;;;;;;5067138;28;20021;-59
2021/11/28 08:38:45;;;;;;;2.28;1.80;;;;;;;;;;5084743;28;20874;-58
2021/11/28 08:41:13;;;;;;;2.03;1.40;;;;;;;;;;5088324;28;20111;-58
2021/11/28 08:43:39;;;;;;;1.75;1.58;;;;;;;;;;5085582;28;20498;-58
2021/11/28 08:46:06;;;;;;;2.25;1.70;;;;;;;;;;5085990;28;20123;-59
2021/11/28 08:48:33;;;;;;;2.88;1.92;;;;;;;;;;5086250;28;20036;-58
2021/11/28 08:50:59;;;;;;;3.72;2.65;;;;;;;;;;5054462;28;20040;-58
2021/11/28 08:53:25;;;;;;;3.15;2.30;;;;;;;;;;5070983;28;20032;-59
2021/11/28 08:55:52;;;;;;;2.83;2.50;;;;;;;;;;5086310;28;20440;-58
2021/11/28 08:58:18;;;;;;;2.40;2.10;;;;;;;;;;5086827;28;20027;-58
2021/11/28 09:00:44;;;;;;;2.60;1.90;;;;;;;;;;5085080;28;20115;-58
2021/11/28 09:03:10;;;;;;;4.05;2.63;;;;;;;;;;5086121;28;20035;-58
2021/11/28 09:05:36;;;;;;;4.28;2.70;;;;;;;;;;5085396;28;20548;-58
2021/11/28 09:08:03;;;;;;;3.53;2.80;;;;;;;;;;5075597;28;20058;-58
2021/11/28 09:10:31;;;;;;;3.53;2.67;;;;;;;;;;5085045;28;21351;-58
2021/11/28 09:12:57;;;;;;;3.80;2.60;;;;;;;;;;5085984;28;20039;-58
2021/11/28 09:15:25;;;;;;;3.70;2.63;;;;;;;;;;5085184;28;20028;-58
2021/11/28 09:17:59;;;;;;;3.22;2.38;;;;;;;;;;5073380;28;20029;-58
2021/11/28 09:20:42;;;;;;;3.70;2.45;;;;;;;;;;5079978;28;20478;-59
2021/11/28 09:29:15;;;;;;;7.32;3.72;;;;;;;;;;5073743;28;20823;-57
2021/11/28 09:35:31;;;;;;;9.13;4.57;;;;;;;;;;5070015;28;20047;-57
2021/11/28 09:38:05;;;;;;;7.15;4.00;;;;;;;;;;5006271;28;20414;-57
2021/11/28 09:40:53;;;;;;;7.32;4.50;;;;;;;;;;5074094;28;20031;-58
2021/11/28 09:43:42;;;;;;;8.55;4.28;;;;;;;;;;5002372;28;20041;-58
2021/11/28 09:57:28;;;;;;;7.38;4.07;;;;;;;;;;5045484;28;20063;-47
2021/11/28 09:59:55;;;;;;;8.10;4.43;;;;;;;;;;5041948;28;20034;-47
2021/11/28 10:05:25;;;;;;;7.03;4.72;;;;;;;;;;5686238;22;20800;-58
2021/11/28 10:07:51;;;;;;;6.65;3.90;;;;;;;;;;5064786;28;20039;-58
2021/11/28 10:10:19;;;;;;;4.90;3.13;;;;;;;;;;5067295;28;20028;-59
2021/11/28 10:12:50;;;;;;;4.28;2.83;;;;;;;;;;5067966;28;20760;-58
2021/11/28 10:15:27;;;;;;;2.65;2.20;;;;;;;;;;5068671;28;20506;-58
2021/11/28 10:17:54;;;;;;;2.55;2.10;;;;;;;;;;5065432;28;20028;-59
2021/11/28 10:20:22;;;;;;;2.50;1.85;;;;;;;;;;5049303;28;20029;-58
2021/11/28 10:26:14;;;;;;;2.78;2.03;;;;;;;;;;5065647;28;20027;-58
2021/11/28 10:29:00;;;;;;;1.98;1.75;;;;;;;;;;5068272;28;20033;-58
2021/11/28 10:31:27;;;;;;;1.50;1.40;;;;;;;;;;5059028;28;20034;-57
2021/11/28 10:33:53;;;;;;;1.45;1.30;;;;;;;;;;5059003;28;20099;-57
2021/11/28 10:36:20;;;;;;;3.13;2.05;;;;;;;;;;5067518;28;20086;-58
2021/11/28 10:38:47;;;;;;;1.85;1.67;;;;;;;;;;5066662;28;20092;-57
2021/11/28 10:41:21;;;;;;;2.60;2.28;;;;;;;;;;5053705;28;20032;-57
2021/11/28 10:43:47;;;;;;;2.30;1.80;;;;;;;;;;5055536;28;20477;-57
2021/11/28 10:46:30;;;;;;;1.95;1.80;;;;;;;;;;5063350;28;20127;-57
2021/11/28 10:49:15;;;;;;;1.90;1.50;;;;;;;;;;5058296;28;20077;-57
2021/11/28 10:51:41;;;;;;;;;;;;;;;;;;5052935;28;20065;-57
2021/11/28 10:54:26;;;;;;;3.05;1.88;;;;;;;;;;5052051;28;20059;-56
2021/11/28 10:57:01;;;;;;;2.45;2.03;;;;;;;;;;5047408;28;20025;-56
2021/11/28 10:59:27;;;;;;;2.30;1.50;;;;;;;;;;5053045;28;20043;-50
2021/11/28 11:01:53;;;;;;;2.58;1.77;;;;;;;;;;5051977;28;20487;-56
2021/11/28 11:04:20;;;;;;;2.42;1.60;;;;;;;;;;5049548;28;20028;-56
2021/11/28 11:07:07;;;;;;;2.67;1.63;;;;;;;;;;5043148;28;20035;-55
2021/11/28 11:09:40;;;;;;;1.88;1.60;;;;;;;;;;5058518;28;20056;-55
2021/11/28 11:12:18;;;;;;;1.73;1.13;;;;;;;;;;5058915;28;20036;-53
2021/11/28 11:14:44;;;;;;;1.67;1.17;;;;;;;;;;5056562;28;20563;-55
2021/11/28 11:17:11;;;;;;;1.73;1.15;;;;;;;;;;5059945;28;20583;-55
2021/11/28 11:19:45;;;;;;;3.25;1.50;;;;;;;;;;5061798;28;20025;-54
2021/11/28 11:22:18;;;;;;;1.73;1.10;;;;;;;;;;5065849;28;20043;-53
2021/11/28 11:24:49;;;;;;;1.75;1.10;;;;;;;;;;5060548;28;20052;-55
2021/11/28 11:27:31;;;;;;;1.13;0.95;;;;;;;;;;5059808;28;20071;-54
2021/11/28 11:30:00;;;;;;;1.67;1.30;;;;;;;;;;5067152;28;20031;-54
2021/11/28 11:32:39;;;;;;;3.67;2.00;;;;;;;;;;5067382;28;20483;-55
2021/11/28 11:35:09;;;;;;;3.65;1.90;;;;;;;;;;5058672;28;20048;-55
2021/11/28 11:37:35;;;;;;;5.90;2.47;;;;;;;;;;5066903;28;20047;-56
2021/11/28 11:40:05;;;;;;;4.30;2.40;;;;;;;;;;5065219;28;20040;-52
2021/11/28 11:42:31;;;;;;;3.92;1.83;;;;;;;;;;5061850;28;20035;-54
2021/11/28 11:44:57;;;;;;;2.42;1.63;;;;;;;;;;5059356;28;20662;-53
2021/11/28 11:47:24;;;;;;;2.10;1.40;;;;;;;;;;5063470;28;20037;-54
2021/11/28 11:49:51;;;;;;;1.70;1.10;;;;;;;;;;5062038;28;20021;-53
2021/11/28 11:52:17;;;;;;;1.48;0.90;;;;;;;;;;5067835;28;20053;-53
2021/11/28 11:54:46;;;;;;;2.35;1.00;;;;;;;;;;5058068;28;20032;-53
2021/11/28 11:57:26;;;;;;;2.28;1.23;;;;;;;;;;5064024;28;20429;-53
2021/11/28 12:00:08;;;;;;;1.25;0.93;;;;;;;;;;5067719;28;20028;-53
2021/11/28 12:02:36;;;;;;;1.40;1.00;;;;;;;;;;5066614;28;20032;-51
2021/11/28 12:05:03;;;;;;;1.00;0.70;;;;;;;;;;5066051;28;20132;-51
2021/11/28 12:07:49;;;;;;;3.00;1.27;;;;;;;;;;5067462;28;20032;-54
2021/11/28 12:34:14;;;;;;;4.88;3.22;;;;;;;;;;5066952;28;20028;-51
2021/11/28 12:36:43;;;;;;;4.72;1.90;;;;;;;;;;5068391;28;20065;-51
2021/11/28 12:39:10;;;;;;;1.88;1.40;;;;;;;;;;5079345;28;20024;-48
2021/11/28 12:42:02;;;;;;;1.90;1.40;;;;;;;;;;5067883;28;20024;-48
2021/11/28 12:44:32;;;;;;;3.38;1.83;;;;;;;;;;5054092;28;20040;-47
2021/11/28 12:47:00;;;;;;;2.47;1.38;;;;;;;;;;5074461;28;20498;-52
2021/11/28 12:49:43;;;;;;;1.98;1.30;;;;;;;;;;5055807;28;20025;-48
2021/11/28 12:52:17;;;;;;;3.25;1.90;;;;;;;;;;5065206;28;20064;-47
2021/11/28 12:54:45;;;;;;;2.50;1.38;;;;;;;;;;5067125;28;20024;-50
2021/11/28 12:57:20;;;;;;;5.45;2.22;;;;;;;;;;5067888;28;20028;-48
2021/11/28 13:00:05;;;;;;;3.58;1.85;;;;;;;;;;5068212;28;20091;-48
2021/11/28 13:02:42;;;;;;;3.58;1.88;;;;;;;;;;5067285;28;20394;-51
2021/11/28 13:05:27;;;;;;;1.70;1.50;;;;;;;;;;5080175;28;20122;-50
2021/11/28 13:08:03;;;;;;;2.00;1.33;;;;;;;;;;5088874;28;20089;-50
2021/11/28 13:10:29;;;;;;;2.55;1.70;;;;;;;;;;5060908;28;20059;-49
2021/11/28 13:12:57;;;;;;;1.50;1.40;;;;;;;;;;5073637;28;20028;-52
2021/11/28 13:15:24;;;;;;;2.08;1.42;;;;;;;;;;5076946;28;20415;-48
2021/11/28 13:17:51;;;;;;;1.25;1.00;;;;;;;;;;5072229;28;20109;-49
2021/11/28 13:20:17;;;;;;;1.00;0.90;;;;;;;;;;5047726;28;20060;-51
2021/11/28 13:22:43;;;;;;;2.05;1.00;;;;;;;;;;5048757;28;20142;-51
2021/11/28 13:25:29;;;;;;;3.28;1.63;;;;;;;;;;5059943;28;20029;-53
2021/11/28 13:28:21;;;;;;;7.00;2.80;;;;;;;;;;5084185;28;20486;-48
2021/11/28 13:30:48;;;;;;;3.75;1.73;;;;;;;;;;5066474;28;20052;-50
2021/11/28 13:33:19;;;;;;;4.53;2.10;;;;;;;;;;5067143;28;20032;-48
2021/11/28 13:35:54;;;;;;;5.20;2.53;;;;;;;;;;5075507;28;20023;-50
2021/11/28 13:38:22;;;;;;;5.53;2.53;;;;;;;;;;5077826;28;20109;-51
2021/11/28 13:41:08;;;;;;;4.35;2.47;;;;;;;;;;5053146;28;20435;-52
2021/11/28 13:43:47;;;;;;;4.05;1.95;;;;;;;;;;5051874;28;20036;-51
2021/11/28 13:46:14;;;;;;;6.57;2.80;;;;;;;;;;5071081;28;20036;-52
2021/11/28 13:48:45;;;;;;;7.00;2.80;;;;;;;;;;5072632;28;20472;-52
2021/11/28 13:51:12;;;;;;;15.27;5.30;;;;;;;;;;5072944;28;20152;-51
2021/11/28 13:53:55;;;;;;;10.30;4.70;;;;;;;;;;5092111;28;20498;-51
2021/11/28 13:56:21;;;;;;;11.38;5.18;;;;;;;;;;5092017;28;20035;-52
2021/11/28 13:59:04;;;;;;;12.38;5.70;;;;;;;;;;5092529;28;20020;-52
2021/11/28 14:01:31;;;;;;;12.32;5.05;;;;;;;;;;5076759;28;20027;-51
2021/11/28 14:03:58;;;;;;;7.25;3.60;;;;;;;;;;5071737;28;20020;-49
2021/11/28 14:06:24;;;;;;;5.88;2.92;;;;;;;;;;5067745;28;20110;-51
2021/11/28 14:08:50;;;;;;;3.75;1.98;;;;;;;;;;5071641;28;20041;-48
2021/11/28 14:11:16;;;;;;;5.07;2.15;;;;;;;;;;5069352;28;20028;-51
2021/11/28 14:13:52;;;;;;;4.07;2.08;;;;;;;;;;5071032;28;20382;-47
2021/11/28 14:16:30;;;;;;;3.78;1.88;;;;;;;;;;5070736;28;20487;-47
2021/11/28 14:19:01;;;;;;;4.63;2.10;;;;;;;;;;5071076;28;20033;-51
2021/11/28 14:21:38;;;;;;;5.93;2.38;;;;;;;;;;5070406;28;20674;-50
2021/11/28 14:24:23;;;;;;;2.88;1.70;;;;;;;;;;5071200;28;20028;-49
2021/11/28 14:26:49;;;;;;;3.60;1.90;;;;;;;;;;5070477;28;20115;-47
2021/11/28 14:29:25;;;;;;;3.05;1.73;;;;;;;;;;5070786;28;20031;-48
2021/11/28 14:32:01;;;;;;;3.33;2.03;;;;;;;;;;5063663;28;20032;-51
2021/11/28 14:34:27;;;;;;;5.38;2.22;;;;;;;;;;5059555;28;20040;-50
2021/11/28 14:36:54;;;;;;;5.93;3.05;;;;;;;;;;5069472;28;20028;-50
2021/11/28 14:39:34;;;;;;;6.43;3.35;;;;;;;;;;5064435;28;20394;-50
2021/11/28 14:42:00;;;;;;;7.35;4.13;;;;;;;;;;5061059;28;20020;-48
2021/11/28 14:44:27;;;;;;;8.70;5.30;;;;;;;;;;5068329;28;20025;-47
2021/11/28 14:46:53;;;;;;;5.40;3.42;;;;;;;;;;5069280;28;20048;-49
2021/11/28 14:49:26;;;;;;;6.40;3.42;;;;;;;;;;5068490;28;20056;-50
2021/11/28 14:52:01;;;;;;;6.57;3.92;;;;;;;;;;5062595;28;20090;-51
2021/11/28 14:54:35;;;;;;;4.32;3.17;;;;;;;;;;5063064;28;20534;-49
2021/11/28 14:57:09;;;;;;;6.73;3.37;;;;;;;;;;5069413;28;20044;-48
2021/11/28 14:59:52;;;;;;;3.80;2.95;;;;;;;;;;5087828;28;20028;-47
2021/11/28 15:02:31;;;;;;;5.68;3.40;;;;;;;;;;5088423;28;20073;-48
2021/11/28 15:05:02;;;;;;;5.43;3.28;;;;;;;;;;5087279;28;20102;-49
2021/11/28 15:07:29;;;;;;;14.02;5.60;;;;;;;;;;5084561;28;20039;-51
2021/11/28 15:09:56;;;;;;;12.25;5.40;;;;;;;;;;5048484;28;20028;-52
2021/11/28 15:40:04;;;;;;;7.82;3.42;;;;;;;;;;5087948;28;20528;-50
2021/11/28 15:42:30;;;;;;;8.57;3.72;;;;;;;;;;5089221;28;20035;-49
2021/11/28 15:44:56;;;;;;;9.98;3.90;;;;;;;;;;5083392;28;21686;-48
2021/11/28 15:47:22;;;;;;;17.63;5.90;;;;;;;;;;5087673;28;20031;-47
2021/11/28 15:49:48;;;;;;;16.92;6.38;;;;;;;;;;5108002;28;20042;-47
2021/11/28 15:52:14;;;;;;;19.00;6.53;;;;;;;;;;5093633;28;20028;-47
2021/11/28 15:54:40;;;;;;;16.60;6.70;;;;;;;;;;5087682;28;20477;-51
2021/11/28 15:57:07;;;;;;;14.38;6.47;;;;;;;;;;5086003;28;20027;-47
2021/11/28 15:59:33;;;;;;;13.60;6.03;;;;;;;;;;5087734;28;20019;-49
2021/11/28 16:01:59;;;;;;;16.90;7.50;;;;;;;;;;5088019;28;20024;-48
2021/11/28 16:04:25;;;;;;;12.80;5.95;;;;;;;;;;5088701;28;20024;-48
2021/11/28 16:06:51;;;;;;;10.90;5.63;;;;;;;;;;5086466;28;20520;-48
2021/11/28 16:09:17;;;;;;;12.48;5.72;;;;;;;;;;5086243;28;20024;-47
2021/11/28 16:11:43;;;;;;;9.38;4.72;;;;;;;;;;5087527;28;20023;-48
2021/11/28 16:14:10;;;;;;;7.60;4.65;;;;;;;;;;5087693;28;20028;-48
2021/11/28 16:16:36;;;;;;;8.55;4.63;;;;;;;;;;5082502;28;20024;-47